sensor_id;sensor_type;location;lat;lon;timestamp;temperature;humidity
18575;DHT22;9417;16.484;102.872;2023-07-29T00:01:35;28.30;83.50
18575;DHT22;9417;16.484;102.872;2023-07-29T00:03:45;28.30;83.80
18575;DHT22;9417;16.484;102.872;2023-07-29T00:05:51;28.20;83.60
18575;DHT22;9417;16.484;102.872;2023-07-29T00:07:58;28.20;83.80
18575;DHT22;9417;16.484;102.872;2023-07-29T00:10:07;28.20;83.60
18575;DHT22;9417;16.484;102.872;2023-07-29T00:12:15;28.20;83.40
18575;DHT22;9417;16.484;102.872;2023-07-29T00:14:22;28.20;83.40
18575;DHT22;9417;16.484;102.872;2023-07-29T00:16:29;28.20;82.90
18575;DHT22;9417;16.484;102.872;2023-07-29T00:18:37;28.20;82.70
18575;DHT22;9417;16.484;102.872;2023-07-29T00:20:44;28.20;82.60
18575;DHT22;9417;16.484;102.872;2023-07-29T00:22:52;28.20;82.70
18575;DHT22;9417;16.484;102.872;2023-07-29T00:24:59;28.20;83.00
18575;DHT22;9417;16.484;102.872;2023-07-29T00:27:08;28.20;83.20
18575;DHT22;9417;16.484;102.872;2023-07-29T00:29:14;28.20;83.00
18575;DHT22;9417;16.484;102.872;2023-07-29T00:31:22;28.20;83.30
18575;DHT22;9417;16.484;102.872;2023-07-29T00:33:29;28.20;83.10
18575;DHT22;9417;16.484;102.872;2023-07-29T00:35:37;28.20;82.90
18575;DHT22;9417;16.484;102.872;2023-07-29T00:37:44;28.20;82.80
18575;DHT22;9417;16.484;102.872;2023-07-29T00:39:51;28.20;83.10
18575;DHT22;9417;16.484;102.872;2023-07-29T00:41:59;28.30;83.20
18575;DHT22;9417;16.484;102.872;2023-07-29T00:44:08;28.30;83.50
18575;DHT22;9417;16.484;102.872;2023-07-29T00:46:16;28.40;83.50
18575;DHT22;9417;16.484;102.872;2023-07-29T00:48:24;28.40;83.20
18575;DHT22;9417;16.484;102.872;2023-07-29T00:50:33;28.50;82.90
18575;DHT22;9417;16.484;102.872;2023-07-29T00:52:40;28.50;82.60
18575;DHT22;9417;16.484;102.872;2023-07-29T00:54:47;28.50;82.70
18575;DHT22;9417;16.484;102.872;2023-07-29T00:56:56;28.50;82.70
18575;DHT22;9417;16.484;102.872;2023-07-29T00:59:03;28.60;82.50
18575;DHT22;9417;16.484;102.872;2023-07-29T01:01:12;28.60;82.40
18575;DHT22;9417;16.484;102.872;2023-07-29T01:03:20;28.60;82.30
18575;DHT22;9417;16.484;102.872;2023-07-29T01:05:32;28.60;82.00
18575;DHT22;9417;16.484;102.872;2023-07-29T01:07:48;28.60;81.90
18575;DHT22;9417;16.484;102.872;2023-07-29T01:10:01;28.70;81.80
18575;DHT22;9417;16.484;102.872;2023-07-29T01:12:20;28.60;81.60
18575;DHT22;9417;16.484;102.872;2023-07-29T01:14:33;28.60;81.70
18575;DHT22;9417;16.484;102.872;2023-07-29T01:16:48;28.60;81.30
18575;DHT22;9417;16.484;102.872;2023-07-29T01:19:03;28.60;81.20
18575;DHT22;9417;16.484;102.872;2023-07-29T01:21:13;28.60;81.00
18575;DHT22;9417;16.484;102.872;2023-07-29T01:23:26;28.70;80.90
18575;DHT22;9417;16.484;102.872;2023-07-29T01:25:34;28.70;80.90
18575;DHT22;9417;16.484;102.872;2023-07-29T01:27:44;28.80;80.70
18575;DHT22;9417;16.484;102.872;2023-07-29T01:29:52;28.80;80.70
18575;DHT22;9417;16.484;102.872;2023-07-29T01:32:02;28.80;80.50
18575;DHT22;9417;16.484;102.872;2023-07-29T01:34:15;28.80;80.70
18575;DHT22;9417;16.484;102.872;2023-07-29T01:36:26;28.80;80.50
18575;DHT22;9417;16.484;102.872;2023-07-29T01:38:38;28.80;80.40
18575;DHT22;9417;16.484;102.872;2023-07-29T01:40:46;28.80;80.20
18575;DHT22;9417;16.484;102.872;2023-07-29T01:42:54;28.90;80.00
18575;DHT22;9417;16.484;102.872;2023-07-29T01:45:01;28.90;79.80
18575;DHT22;9417;16.484;102.872;2023-07-29T01:47:08;28.90;79.70
18575;DHT22;9417;16.484;102.872;2023-07-29T01:49:15;29.00;79.60
18575;DHT22;9417;16.484;102.872;2023-07-29T01:51:22;29.00;79.50
18575;DHT22;9417;16.484;102.872;2023-07-29T01:53:30;29.10;79.20
18575;DHT22;9417;16.484;102.872;2023-07-29T01:55:39;29.10;79.30
18575;DHT22;9417;16.484;102.872;2023-07-29T01:57:47;29.20;79.20
18575;DHT22;9417;16.484;102.872;2023-07-29T01:59:55;29.20;79.00
18575;DHT22;9417;16.484;102.872;2023-07-29T02:02:01;29.30;78.60
18575;DHT22;9417;16.484;102.872;2023-07-29T02:04:08;29.20;78.60
18575;DHT22;9417;16.484;102.872;2023-07-29T02:06:16;29.20;78.40
18575;DHT22;9417;16.484;102.872;2023-07-29T02:08:23;29.20;78.30
18575;DHT22;9417;16.484;102.872;2023-07-29T02:10:30;29.30;78.30
18575;DHT22;9417;16.484;102.872;2023-07-29T02:12:39;29.40;78.10
18575;DHT22;9417;16.484;102.872;2023-07-29T02:14:46;29.40;78.40
18575;DHT22;9417;16.484;102.872;2023-07-29T02:16:54;29.40;78.80
18575;DHT22;9417;16.484;102.872;2023-07-29T02:19:01;29.40;78.80
18575;DHT22;9417;16.484;102.872;2023-07-29T02:21:08;29.30;78.60
18575;DHT22;9417;16.484;102.872;2023-07-29T02:23:16;29.30;78.60
18575;DHT22;9417;16.484;102.872;2023-07-29T02:25:23;29.30;78.80
18575;DHT22;9417;16.484;102.872;2023-07-29T02:27:29;29.40;79.00
18575;DHT22;9417;16.484;102.872;2023-07-29T02:29:39;29.40;78.70
18575;DHT22;9417;16.484;102.872;2023-07-29T02:31:46;29.40;78.80
18575;DHT22;9417;16.484;102.872;2023-07-29T02:33:54;29.30;78.60
18575;DHT22;9417;16.484;102.872;2023-07-29T02:36:01;29.30;78.60
18575;DHT22;9417;16.484;102.872;2023-07-29T02:38:07;29.40;78.70
18575;DHT22;9417;16.484;102.872;2023-07-29T02:40:14;29.40;79.10
18575;DHT22;9417;16.484;102.872;2023-07-29T02:42:22;29.40;79.60
18575;DHT22;9417;16.484;102.872;2023-07-29T02:44:29;29.40;79.70
18575;DHT22;9417;16.484;102.872;2023-07-29T02:46:38;29.40;80.00
18575;DHT22;9417;16.484;102.872;2023-07-29T02:48:46;29.40;80.40
18575;DHT22;9417;16.484;102.872;2023-07-29T02:50:51;29.40;80.50
18575;DHT22;9417;16.484;102.872;2023-07-29T02:52:59;29.40;79.90
18575;DHT22;9417;16.484;102.872;2023-07-29T02:55:07;29.50;79.60
18575;DHT22;9417;16.484;102.872;2023-07-29T02:57:14;29.50;80.00
18575;DHT22;9417;16.484;102.872;2023-07-29T02:59:22;29.50;80.20
18575;DHT22;9417;16.484;102.872;2023-07-29T03:01:29;29.60;80.30
18575;DHT22;9417;16.484;102.872;2023-07-29T03:03:39;29.60;79.90
18575;DHT22;9417;16.484;102.872;2023-07-29T03:05:46;29.70;79.60
18575;DHT22;9417;16.484;102.872;2023-07-29T03:07:54;29.70;79.40
18575;DHT22;9417;16.484;102.872;2023-07-29T03:10:01;29.70;79.30
18575;DHT22;9417;16.484;102.872;2023-07-29T03:12:07;29.70;78.80
18575;DHT22;9417;16.484;102.872;2023-07-29T03:14:14;29.80;78.90
18575;DHT22;9417;16.484;102.872;2023-07-29T03:16:22;29.80;79.00
18575;DHT22;9417;16.484;102.872;2023-07-29T03:18:31;29.80;78.90
18575;DHT22;9417;16.484;102.872;2023-07-29T03:20:40;29.80;78.50
18575;DHT22;9417;16.484;102.872;2023-07-29T03:22:48;29.90;78.20
18575;DHT22;9417;16.484;102.872;2023-07-29T03:24:55;29.90;78.20
18575;DHT22;9417;16.484;102.872;2023-07-29T03:27:02;30.00;78.20
18575;DHT22;9417;16.484;102.872;2023-07-29T03:29:10;30.00;77.30
18575;DHT22;9417;16.484;102.872;2023-07-29T03:31:17;29.90;77.60
18575;DHT22;9417;16.484;102.872;2023-07-29T03:33:25;30.00;78.30
18575;DHT22;9417;16.484;102.872;2023-07-29T03:35:33;29.90;78.00
18575;DHT22;9417;16.484;102.872;2023-07-29T03:37:42;30.00;78.10
18575;DHT22;9417;16.484;102.872;2023-07-29T03:39:50;30.00;77.60
18575;DHT22;9417;16.484;102.872;2023-07-29T03:41:58;30.10;77.50
18575;DHT22;9417;16.484;102.872;2023-07-29T03:44:05;30.10;77.20
18575;DHT22;9417;16.484;102.872;2023-07-29T03:46:13;30.20;77.20
18575;DHT22;9417;16.484;102.872;2023-07-29T03:48:24;30.20;77.00
18575;DHT22;9417;16.484;102.872;2023-07-29T03:50:31;30.20;76.80
18575;DHT22;9417;16.484;102.872;2023-07-29T03:52:40;30.30;77.10
18575;DHT22;9417;16.484;102.872;2023-07-29T03:54:47;30.30;77.40
18575;DHT22;9417;16.484;102.872;2023-07-29T03:56:55;30.30;76.90
18575;DHT22;9417;16.484;102.872;2023-07-29T03:59:05;30.30;77.00
18575;DHT22;9417;16.484;102.872;2023-07-29T04:01:12;30.30;77.30
18575;DHT22;9417;16.484;102.872;2023-07-29T04:03:20;30.30;77.60
18575;DHT22;9417;16.484;102.872;2023-07-29T04:05:29;30.30;77.70
18575;DHT22;9417;16.484;102.872;2023-07-29T04:07:36;30.30;78.10
18575;DHT22;9417;16.484;102.872;2023-07-29T04:09:46;30.30;78.00
18575;DHT22;9417;16.484;102.872;2023-07-29T04:11:54;30.20;77.70
18575;DHT22;9417;16.484;102.872;2023-07-29T04:14:01;30.20;77.70
18575;DHT22;9417;16.484;102.872;2023-07-29T04:16:08;30.20;78.00
18575;DHT22;9417;16.484;102.872;2023-07-29T04:18:16;30.20;78.20
18575;DHT22;9417;16.484;102.872;2023-07-29T04:20:24;30.30;77.90
18575;DHT22;9417;16.484;102.872;2023-07-29T04:22:32;30.30;77.50
18575;DHT22;9417;16.484;102.872;2023-07-29T04:24:39;30.30;77.40
18575;DHT22;9417;16.484;102.872;2023-07-29T04:26:48;30.40;77.20
18575;DHT22;9417;16.484;102.872;2023-07-29T04:28:55;30.40;77.00
18575;DHT22;9417;16.484;102.872;2023-07-29T04:31:03;30.40;77.00
18575;DHT22;9417;16.484;102.872;2023-07-29T04:33:11;30.50;76.60
18575;DHT22;9417;16.484;102.872;2023-07-29T04:35:17;30.60;76.20
18575;DHT22;9417;16.484;102.872;2023-07-29T04:37:24;30.60;76.00
18575;DHT22;9417;16.484;102.872;2023-07-29T04:39:32;30.70;75.70
18575;DHT22;9417;16.484;102.872;2023-07-29T04:41:40;30.70;75.70
18575;DHT22;9417;16.484;102.872;2023-07-29T04:43:49;30.70;75.30
18575;DHT22;9417;16.484;102.872;2023-07-29T04:45:57;30.70;75.30
18575;DHT22;9417;16.484;102.872;2023-07-29T04:48:05;30.70;75.30
18575;DHT22;9417;16.484;102.872;2023-07-29T04:50:12;30.80;74.90
18575;DHT22;9417;16.484;102.872;2023-07-29T04:52:20;30.80;74.80
18575;DHT22;9417;16.484;102.872;2023-07-29T04:54:27;30.80;74.80
18575;DHT22;9417;16.484;102.872;2023-07-29T04:56:35;30.80;75.00
18575;DHT22;9417;16.484;102.872;2023-07-29T04:58:44;30.90;75.00
18575;DHT22;9417;16.484;102.872;2023-07-29T05:00:51;30.90;75.10
18575;DHT22;9417;16.484;102.872;2023-07-29T05:02:59;30.80;75.00
18575;DHT22;9417;16.484;102.872;2023-07-29T05:05:07;30.80;74.70
18575;DHT22;9417;16.484;102.872;2023-07-29T05:07:15;30.80;74.60
18575;DHT22;9417;16.484;102.872;2023-07-29T05:09:22;30.80;75.00
18575;DHT22;9417;16.484;102.872;2023-07-29T05:11:32;30.80;75.10
18575;DHT22;9417;16.484;102.872;2023-07-29T05:13:39;30.90;75.30
18575;DHT22;9417;16.484;102.872;2023-07-29T05:15:51;30.90;75.30
18575;DHT22;9417;16.484;102.872;2023-07-29T05:17:58;30.90;75.00
18575;DHT22;9417;16.484;102.872;2023-07-29T05:20:07;30.90;74.80
18575;DHT22;9417;16.484;102.872;2023-07-29T05:22:14;30.90;74.80
18575;DHT22;9417;16.484;102.872;2023-07-29T05:24:22;30.90;75.20
18575;DHT22;9417;16.484;102.872;2023-07-29T05:26:30;30.80;75.70
18575;DHT22;9417;16.484;102.872;2023-07-29T05:28:38;30.80;75.60
18575;DHT22;9417;16.484;102.872;2023-07-29T05:30:45;30.80;75.70
18575;DHT22;9417;16.484;102.872;2023-07-29T05:32:54;30.80;75.80
18575;DHT22;9417;16.484;102.872;2023-07-29T05:35:02;30.80;75.20
18575;DHT22;9417;16.484;102.872;2023-07-29T05:37:13;30.90;74.40
18575;DHT22;9417;16.484;102.872;2023-07-29T05:39:20;30.90;74.00
18575;DHT22;9417;16.484;102.872;2023-07-29T05:41:28;31.00;74.10
18575;DHT22;9417;16.484;102.872;2023-07-29T05:43:37;31.00;73.80
18575;DHT22;9417;16.484;102.872;2023-07-29T05:45:45;31.10;73.50
18575;DHT22;9417;16.484;102.872;2023-07-29T05:47:54;31.20;73.20
18575;DHT22;9417;16.484;102.872;2023-07-29T05:50:01;31.30;73.00
18575;DHT22;9417;16.484;102.872;2023-07-29T05:52:10;31.40;72.50
18575;DHT22;9417;16.484;102.872;2023-07-29T05:54:18;31.40;73.20
18575;DHT22;9417;16.484;102.872;2023-07-29T05:56:26;31.50;73.60
18575;DHT22;9417;16.484;102.872;2023-07-29T05:58:32;31.50;73.70
18575;DHT22;9417;16.484;102.872;2023-07-29T06:00:40;31.50;73.40
18575;DHT22;9417;16.484;102.872;2023-07-29T06:02:47;31.50;73.80
18575;DHT22;9417;16.484;102.872;2023-07-29T06:04:59;31.40;74.00
18575;DHT22;9417;16.484;102.872;2023-07-29T06:07:08;31.50;74.10
18575;DHT22;9417;16.484;102.872;2023-07-29T06:09:16;31.40;74.00
18575;DHT22;9417;16.484;102.872;2023-07-29T06:11:22;31.40;73.60
18575;DHT22;9417;16.484;102.872;2023-07-29T06:13:29;31.40;73.00
18575;DHT22;9417;16.484;102.872;2023-07-29T06:15:36;31.30;72.70
18575;DHT22;9417;16.484;102.872;2023-07-29T06:17:44;31.40;72.80
18575;DHT22;9417;16.484;102.872;2023-07-29T06:19:50;31.40;73.50
18575;DHT22;9417;16.484;102.872;2023-07-29T06:22:00;31.40;73.80
18575;DHT22;9417;16.484;102.872;2023-07-29T06:24:07;31.40;73.80
18575;DHT22;9417;16.484;102.872;2023-07-29T06:26:15;31.40;73.90
18575;DHT22;9417;16.484;102.872;2023-07-29T06:28:22;31.40;74.20
18575;DHT22;9417;16.484;102.872;2023-07-29T06:30:30;31.40;74.70
18575;DHT22;9417;16.484;102.872;2023-07-29T06:32:37;31.40;74.90
18575;DHT22;9417;16.484;102.872;2023-07-29T06:34:45;31.40;74.70
18575;DHT22;9417;16.484;102.872;2023-07-29T06:36:52;31.40;74.50
18575;DHT22;9417;16.484;102.872;2023-07-29T06:39:01;31.40;74.20
18575;DHT22;9417;16.484;102.872;2023-07-29T06:41:08;31.40;74.60
18575;DHT22;9417;16.484;102.872;2023-07-29T06:43:19;31.40;74.90
18575;DHT22;9417;16.484;102.872;2023-07-29T06:45:26;31.40;75.00
18575;DHT22;9417;16.484;102.872;2023-07-29T06:47:32;31.40;75.10
18575;DHT22;9417;16.484;102.872;2023-07-29T06:49:40;31.40;75.20
18575;DHT22;9417;16.484;102.872;2023-07-29T06:51:47;31.40;75.00
18575;DHT22;9417;16.484;102.872;2023-07-29T06:53:55;31.50;74.70
18575;DHT22;9417;16.484;102.872;2023-07-29T06:56:04;31.50;74.80
18575;DHT22;9417;16.484;102.872;2023-07-29T06:58:11;31.50;74.70
18575;DHT22;9417;16.484;102.872;2023-07-29T07:00:19;31.60;74.50
18575;DHT22;9417;16.484;102.872;2023-07-29T07:02:26;31.50;74.10
18575;DHT22;9417;16.484;102.872;2023-07-29T07:04:33;31.50;74.00
18575;DHT22;9417;16.484;102.872;2023-07-29T07:06:41;31.50;74.10
18575;DHT22;9417;16.484;102.872;2023-07-29T07:08:48;31.40;74.10
18575;DHT22;9417;16.484;102.872;2023-07-29T07:10:55;31.40;74.40
18575;DHT22;9417;16.484;102.872;2023-07-29T07:13:04;31.40;74.40
18575;DHT22;9417;16.484;102.872;2023-07-29T07:15:12;31.30;74.20
18575;DHT22;9417;16.484;102.872;2023-07-29T07:17:19;31.30;74.40
18575;DHT22;9417;16.484;102.872;2023-07-29T07:19:27;31.30;74.30
18575;DHT22;9417;16.484;102.872;2023-07-29T07:21:34;31.30;74.50
18575;DHT22;9417;16.484;102.872;2023-07-29T07:23:41;31.30;74.90
18575;DHT22;9417;16.484;102.872;2023-07-29T07:25:48;31.30;75.20
18575;DHT22;9417;16.484;102.872;2023-07-29T07:27:56;31.20;75.10
18575;DHT22;9417;16.484;102.872;2023-07-29T07:30:06;31.20;75.20
18575;DHT22;9417;16.484;102.872;2023-07-29T07:32:13;31.20;75.00
18575;DHT22;9417;16.484;102.872;2023-07-29T07:34:20;31.10;75.20
18575;DHT22;9417;16.484;102.872;2023-07-29T07:36:28;31.10;75.40
18575;DHT22;9417;16.484;102.872;2023-07-29T07:38:35;31.10;75.40
18575;DHT22;9417;16.484;102.872;2023-07-29T07:40:43;31.00;75.30
18575;DHT22;9417;16.484;102.872;2023-07-29T07:43:00;31.10;75.20
18575;DHT22;9417;16.484;102.872;2023-07-29T07:45:09;31.10;75.00
18575;DHT22;9417;16.484;102.872;2023-07-29T07:47:16;31.10;74.90
18575;DHT22;9417;16.484;102.872;2023-07-29T07:49:23;31.10;75.00
18575;DHT22;9417;16.484;102.872;2023-07-29T07:51:30;31.10;75.10
18575;DHT22;9417;16.484;102.872;2023-07-29T07:53:37;31.10;75.10
18575;DHT22;9417;16.484;102.872;2023-07-29T07:55:45;31.10;75.10
18575;DHT22;9417;16.484;102.872;2023-07-29T07:57:52;31.10;75.50
18575;DHT22;9417;16.484;102.872;2023-07-29T08:00:00;31.10;75.80
18575;DHT22;9417;16.484;102.872;2023-07-29T08:02:17;31.10;76.10
18575;DHT22;9417;16.484;102.872;2023-07-29T08:04:25;31.20;75.80
18575;DHT22;9417;16.484;102.872;2023-07-29T08:06:33;31.20;75.80
18575;DHT22;9417;16.484;102.872;2023-07-29T08:08:41;31.20;75.70
18575;DHT22;9417;16.484;102.872;2023-07-29T08:10:48;31.40;75.50
18575;DHT22;9417;16.484;102.872;2023-07-29T08:12:55;31.40;75.30
18575;DHT22;9417;16.484;102.872;2023-07-29T08:15:02;31.50;75.80
18575;DHT22;9417;16.484;102.872;2023-07-29T08:17:10;31.50;76.10
18575;DHT22;9417;16.484;102.872;2023-07-29T08:19:18;31.60;76.40
18575;DHT22;9417;16.484;102.872;2023-07-29T08:21:27;31.60;76.40
18575;DHT22;9417;16.484;102.872;2023-07-29T08:23:35;31.60;76.10
18575;DHT22;9417;16.484;102.872;2023-07-29T08:25:43;31.60;75.40
18575;DHT22;9417;16.484;102.872;2023-07-29T08:27:50;31.70;75.00
18575;DHT22;9417;16.484;102.872;2023-07-29T08:29:58;31.70;74.80
18575;DHT22;9417;16.484;102.872;2023-07-29T08:32:05;31.70;75.00
18575;DHT22;9417;16.484;102.872;2023-07-29T08:34:13;31.80;74.50
18575;DHT22;9417;16.484;102.872;2023-07-29T08:36:22;31.70;74.00
18575;DHT22;9417;16.484;102.872;2023-07-29T08:38:29;31.80;74.00
18575;DHT22;9417;16.484;102.872;2023-07-29T08:40:40;31.90;73.70
18575;DHT22;9417;16.484;102.872;2023-07-29T08:42:49;31.90;73.70
18575;DHT22;9417;16.484;102.872;2023-07-29T08:44:57;31.90;73.70
18575;DHT22;9417;16.484;102.872;2023-07-29T08:47:06;31.90;74.00
18575;DHT22;9417;16.484;102.872;2023-07-29T08:49:13;31.90;73.90
18575;DHT22;9417;16.484;102.872;2023-07-29T08:51:26;31.80;73.60
18575;DHT22;9417;16.484;102.872;2023-07-29T08:53:33;31.90;73.60
18575;DHT22;9417;16.484;102.872;2023-07-29T08:55:41;31.90;73.20
18575;DHT22;9417;16.484;102.872;2023-07-29T08:57:49;32.00;72.50
18575;DHT22;9417;16.484;102.872;2023-07-29T08:59:57;32.10;72.20
18575;DHT22;9417;16.484;102.872;2023-07-29T09:02:05;32.10;72.00
18575;DHT22;9417;16.484;102.872;2023-07-29T09:04:13;32.10;72.00
18575;DHT22;9417;16.484;102.872;2023-07-29T09:06:20;32.20;72.60
18575;DHT22;9417;16.484;102.872;2023-07-29T09:08:30;32.20;72.50
18575;DHT22;9417;16.484;102.872;2023-07-29T09:10:38;32.30;72.30
18575;DHT22;9417;16.484;102.872;2023-07-29T09:12:44;32.20;71.30
18575;DHT22;9417;16.484;102.872;2023-07-29T09:14:53;32.20;70.20
18575;DHT22;9417;16.484;102.872;2023-07-29T09:17:01;32.20;69.80
18575;DHT22;9417;16.484;102.872;2023-07-29T09:19:08;32.10;69.50
18575;DHT22;9417;16.484;102.872;2023-07-29T09:21:18;32.20;69.70
18575;DHT22;9417;16.484;102.872;2023-07-29T09:23:39;32.20;69.50
18575;DHT22;9417;16.484;102.872;2023-07-29T09:25:47;32.10;69.70
18575;DHT22;9417;16.484;102.872;2023-07-29T09:27:59;32.00;70.30
18575;DHT22;9417;16.484;102.872;2023-07-29T09:30:08;32.00;70.30
18575;DHT22;9417;16.484;102.872;2023-07-29T09:32:23;31.90;70.80
18575;DHT22;9417;16.484;102.872;2023-07-29T09:34:31;31.80;71.20
18575;DHT22;9417;16.484;102.872;2023-07-29T09:36:38;31.80;71.00
18575;DHT22;9417;16.484;102.872;2023-07-29T09:38:47;31.70;70.80
18575;DHT22;9417;16.484;102.872;2023-07-29T09:40:56;31.70;71.20
18575;DHT22;9417;16.484;102.872;2023-07-29T09:43:04;31.60;71.70
18575;DHT22;9417;16.484;102.872;2023-07-29T09:45:12;31.60;71.80
18575;DHT22;9417;16.484;102.872;2023-07-29T09:47:24;31.50;71.40
18575;DHT22;9417;16.484;102.872;2023-07-29T09:49:35;31.50;71.20
18575;DHT22;9417;16.484;102.872;2023-07-29T09:51:42;31.50;70.90
18575;DHT22;9417;16.484;102.872;2023-07-29T09:53:51;31.40;70.80
18575;DHT22;9417;16.484;102.872;2023-07-29T09:55:59;31.40;71.70
18575;DHT22;9417;16.484;102.872;2023-07-29T09:58:06;31.40;71.90
18575;DHT22;9417;16.484;102.872;2023-07-29T10:00:14;31.30;71.50
18575;DHT22;9417;16.484;102.872;2023-07-29T10:02:21;31.30;71.50
18575;DHT22;9417;16.484;102.872;2023-07-29T10:04:31;31.40;71.90
18575;DHT22;9417;16.484;102.872;2023-07-29T10:06:39;31.30;71.80
18575;DHT22;9417;16.484;102.872;2023-07-29T10:08:50;31.30;72.20
18575;DHT22;9417;16.484;102.872;2023-07-29T10:11:00;31.30;72.20
18575;DHT22;9417;16.484;102.872;2023-07-29T10:13:08;31.30;72.00
18575;DHT22;9417;16.484;102.872;2023-07-29T10:15:16;31.30;71.90
18575;DHT22;9417;16.484;102.872;2023-07-29T10:17:25;31.20;72.00
18575;DHT22;9417;16.484;102.872;2023-07-29T10:19:33;31.20;72.00
18575;DHT22;9417;16.484;102.872;2023-07-29T10:21:44;31.20;71.90
18575;DHT22;9417;16.484;102.872;2023-07-29T10:23:57;31.20;71.90
18575;DHT22;9417;16.484;102.872;2023-07-29T10:26:08;31.20;72.20
18575;DHT22;9417;16.484;102.872;2023-07-29T10:28:18;31.20;72.20
18575;DHT22;9417;16.484;102.872;2023-07-29T10:30:29;31.20;72.40
18575;DHT22;9417;16.484;102.872;2023-07-29T10:32:37;31.10;72.80
18575;DHT22;9417;16.484;102.872;2023-07-29T10:34:46;31.10;73.30
18575;DHT22;9417;16.484;102.872;2023-07-29T10:36:54;31.10;73.70
18575;DHT22;9417;16.484;102.872;2023-07-29T10:39:04;31.10;74.10
18575;DHT22;9417;16.484;102.872;2023-07-29T10:41:11;31.10;74.50
18575;DHT22;9417;16.484;102.872;2023-07-29T10:43:24;31.10;74.80
18575;DHT22;9417;16.484;102.872;2023-07-29T10:45:37;31.00;74.50
18575;DHT22;9417;16.484;102.872;2023-07-29T10:47:45;31.00;73.90
18575;DHT22;9417;16.484;102.872;2023-07-29T10:49:54;31.00;73.80
18575;DHT22;9417;16.484;102.872;2023-07-29T10:52:01;31.00;73.70
18575;DHT22;9417;16.484;102.872;2023-07-29T10:54:13;31.00;73.60
18575;DHT22;9417;16.484;102.872;2023-07-29T10:56:31;31.00;73.60
18575;DHT22;9417;16.484;102.872;2023-07-29T10:58:44;31.00;73.40
18575;DHT22;9417;16.484;102.872;2023-07-29T11:00:52;30.90;73.40
18575;DHT22;9417;16.484;102.872;2023-07-29T11:03:01;30.90;73.50
18575;DHT22;9417;16.484;102.872;2023-07-29T11:05:08;30.90;73.50
18575;DHT22;9417;16.484;102.872;2023-07-29T11:07:24;30.90;73.20
18575;DHT22;9417;16.484;102.872;2023-07-29T11:09:53;30.80;73.40
18575;DHT22;9417;16.484;102.872;2023-07-29T11:12:07;30.80;73.20
18575;DHT22;9417;16.484;102.872;2023-07-29T11:14:33;30.80;73.40
18575;DHT22;9417;16.484;102.872;2023-07-29T11:16:43;30.70;73.50
18575;DHT22;9417;16.484;102.872;2023-07-29T11:18:51;30.70;73.80
18575;DHT22;9417;16.484;102.872;2023-07-29T11:20:59;30.70;73.70
18575;DHT22;9417;16.484;102.872;2023-07-29T11:23:06;30.70;73.60
18575;DHT22;9417;16.484;102.872;2023-07-29T11:25:16;30.70;73.70
18575;DHT22;9417;16.484;102.872;2023-07-29T11:27:23;30.60;73.50
18575;DHT22;9417;16.484;102.872;2023-07-29T11:29:31;30.60;73.70
18575;DHT22;9417;16.484;102.872;2023-07-29T11:31:41;30.60;73.70
18575;DHT22;9417;16.484;102.872;2023-07-29T11:33:49;30.60;73.60
18575;DHT22;9417;16.484;102.872;2023-07-29T11:35:58;30.60;73.90
18575;DHT22;9417;16.484;102.872;2023-07-29T11:38:05;30.60;74.10
18575;DHT22;9417;16.484;102.872;2023-07-29T11:40:16;30.60;74.20
18575;DHT22;9417;16.484;102.872;2023-07-29T11:42:25;30.60;74.40
18575;DHT22;9417;16.484;102.872;2023-07-29T11:44:31;30.60;74.40
18575;DHT22;9417;16.484;102.872;2023-07-29T11:46:40;30.60;74.30
18575;DHT22;9417;16.484;102.872;2023-07-29T11:48:47;30.50;74.30
18575;DHT22;9417;16.484;102.872;2023-07-29T11:50:55;30.50;74.40
18575;DHT22;9417;16.484;102.872;2023-07-29T11:53:03;30.50;74.30
18575;DHT22;9417;16.484;102.872;2023-07-29T11:55:14;30.50;74.20
18575;DHT22;9417;16.484;102.872;2023-07-29T11:57:24;30.50;74.20
18575;DHT22;9417;16.484;102.872;2023-07-29T11:59:33;30.50;74.20
18575;DHT22;9417;16.484;102.872;2023-07-29T12:01:41;30.40;74.20
18575;DHT22;9417;16.484;102.872;2023-07-29T12:03:49;30.40;74.00
18575;DHT22;9417;16.484;102.872;2023-07-29T12:05:56;30.40;74.20
18575;DHT22;9417;16.484;102.872;2023-07-29T12:08:04;30.40;74.00
18575;DHT22;9417;16.484;102.872;2023-07-29T12:10:14;30.40;73.80
18575;DHT22;9417;16.484;102.872;2023-07-29T12:12:23;30.40;73.80
18575;DHT22;9417;16.484;102.872;2023-07-29T12:14:30;30.30;73.90
18575;DHT22;9417;16.484;102.872;2023-07-29T12:16:41;30.40;74.10
18575;DHT22;9417;16.484;102.872;2023-07-29T12:18:50;30.40;74.20
18575;DHT22;9417;16.484;102.872;2023-07-29T12:21:00;30.40;74.10
18575;DHT22;9417;16.484;102.872;2023-07-29T12:23:07;30.30;74.10
18575;DHT22;9417;16.484;102.872;2023-07-29T12:25:16;30.30;74.10
18575;DHT22;9417;16.484;102.872;2023-07-29T12:27:23;30.30;73.90
18575;DHT22;9417;16.484;102.872;2023-07-29T12:29:31;30.30;73.70
18575;DHT22;9417;16.484;102.872;2023-07-29T12:31:39;30.30;73.70
18575;DHT22;9417;16.484;102.872;2023-07-29T12:33:46;30.30;73.90
18575;DHT22;9417;16.484;102.872;2023-07-29T12:35:54;30.30;73.90
18575;DHT22;9417;16.484;102.872;2023-07-29T12:38:01;30.30;73.90
18575;DHT22;9417;16.484;102.872;2023-07-29T12:40:19;30.30;74.00
18575;DHT22;9417;16.484;102.872;2023-07-29T12:42:29;30.30;74.00
18575;DHT22;9417;16.484;102.872;2023-07-29T12:44:38;30.30;74.00
18575;DHT22;9417;16.484;102.872;2023-07-29T12:46:45;30.30;73.90
18575;DHT22;9417;16.484;102.872;2023-07-29T12:48:52;30.30;74.00
18575;DHT22;9417;16.484;102.872;2023-07-29T12:50:59;30.30;74.20
18575;DHT22;9417;16.484;102.872;2023-07-29T12:53:07;30.30;74.60
18575;DHT22;9417;16.484;102.872;2023-07-29T12:55:15;30.20;74.90
18575;DHT22;9417;16.484;102.872;2023-07-29T12:57:28;30.20;75.10
18575;DHT22;9417;16.484;102.872;2023-07-29T12:59:36;30.20;75.30
18575;DHT22;9417;16.484;102.872;2023-07-29T13:01:43;30.20;75.60
18575;DHT22;9417;16.484;102.872;2023-07-29T13:03:51;30.10;75.70
18575;DHT22;9417;16.484;102.872;2023-07-29T13:05:59;30.20;75.60
18575;DHT22;9417;16.484;102.872;2023-07-29T13:08:06;30.10;75.80
18575;DHT22;9417;16.484;102.872;2023-07-29T13:10:15;30.10;75.90
18575;DHT22;9417;16.484;102.872;2023-07-29T13:12:23;30.20;76.00
18575;DHT22;9417;16.484;102.872;2023-07-29T13:14:32;30.20;75.90
18575;DHT22;9417;16.484;102.872;2023-07-29T13:16:39;30.10;75.90
18575;DHT22;9417;16.484;102.872;2023-07-29T13:18:47;30.10;75.80